createdAt,value
2017-12-23T00:00:44.879Z,1029.14
2017-12-23T00:01:53.491Z,1029.15
2017-12-23T00:03:02.085Z,1029.16
2017-12-23T00:04:10.689Z,1029.14
2017-12-23T00:05:19.302Z,1029.18
2017-12-23T00:06:27.894Z,1029.17
2017-12-23T00:07:36.497Z,1029.14
2017-12-23T00:08:45.108Z,1029.09
2017-12-23T00:09:53.705Z,1029.08
2017-12-23T00:11:02.304Z,1029.05
2017-12-23T00:12:10.917Z,1028.97
2017-12-23T00:13:19.519Z,1028.94
2017-12-23T00:14:28.108Z,1028.9
2017-12-23T00:15:36.722Z,1028.88
2017-12-23T00:16:45.300Z,1028.9
2017-12-23T00:17:53.913Z,1028.87
2017-12-23T00:19:02.515Z,1028.84
2017-12-23T00:20:11.121Z,1028.87
2017-12-23T00:21:19.727Z,1028.85
2017-12-23T00:22:28.331Z,1028.87
2017-12-23T00:23:36.926Z,1028.89
2017-12-23T00:24:45.544Z,1028.86
2017-12-23T00:25:54.143Z,1028.86
2017-12-23T00:27:02.736Z,1028.85
2017-12-23T00:28:11.348Z,1028.78
2017-12-23T00:29:19.960Z,1028.75
2017-12-23T00:30:28.562Z,1028.7
2017-12-23T00:31:37.162Z,1028.7
2017-12-23T00:32:45.759Z,1028.62
2017-12-23T00:33:54.371Z,1028.64
2017-12-23T00:35:02.978Z,1028.69
2017-12-23T00:36:11.830Z,1028.69
2017-12-23T00:37:20.699Z,1028.68
2017-12-23T00:38:29.306Z,1028.71
2017-12-23T00:39:37.902Z,1028.68
2017-12-23T00:40:46.507Z,1028.64
2017-12-23T00:41:55.123Z,1028.59
2017-12-23T00:43:03.712Z,1028.53
2017-12-23T00:44:12.310Z,1028.54
2017-12-23T00:45:20.913Z,1028.53
2017-12-23T00:46:29.523Z,1028.51
2017-12-23T00:47:38.130Z,1028.49
2017-12-23T00:48:46.723Z,1028.52
2017-12-23T00:49:55.332Z,1028.55
2017-12-23T00:51:03.943Z,1028.5
2017-12-23T00:52:12.537Z,1028.46
2017-12-23T00:53:21.397Z,1028.47
2017-12-23T00:54:30.009Z,1028.47
2017-12-23T00:55:38.604Z,1028.44
2017-12-23T00:56:47.202Z,1028.48
2017-12-23T00:57:55.821Z,1028.51
2017-12-23T00:59:04.425Z,1028.47
2017-12-23T01:00:13.033Z,1028.38
2017-12-23T01:01:21.623Z,1028.32
2017-12-23T01:02:30.222Z,1028.28
2017-12-23T01:03:38.833Z,1028.23
2017-12-23T01:04:47.430Z,1028.2
2017-12-23T01:05:56.029Z,1028.19
2017-12-23T01:07:04.909Z,1028.12
2017-12-23T01:08:13.508Z,1028.09
2017-12-23T01:09:22.102Z,1028.04
2017-12-23T01:10:30.717Z,1027.99
2017-12-23T01:11:39.326Z,1027.98
2017-12-23T01:12:47.924Z,1028
2017-12-23T01:13:56.530Z,1027.98
2017-12-23T01:15:05.127Z,1028
2017-12-23T01:16:13.744Z,1027.99
2017-12-23T01:17:22.343Z,1027.97
2017-12-23T01:18:30.940Z,1027.93
2017-12-23T01:19:39.806Z,1027.94
2017-12-23T01:20:48.676Z,1027.92
2017-12-23T01:21:57.267Z,1027.94
2017-12-23T01:23:06.136Z,1027.99
2017-12-23T01:24:14.745Z,1028
2017-12-23T01:25:23.340Z,1028.02
2017-12-23T01:26:32.199Z,1028.05
2017-12-23T01:27:40.814Z,1027.93
2017-12-23T01:28:49.412Z,1027.92
2017-12-23T01:29:58.019Z,1027.9
2017-12-23T01:31:06.604Z,1027.91
2017-12-23T01:32:15.212Z,1027.86
2017-12-23T01:33:23.819Z,1027.87
2017-12-23T01:34:32.434Z,1027.91
2017-12-23T01:35:41.023Z,1027.89
2017-12-23T01:36:49.635Z,1027.89
2017-12-23T01:37:58.230Z,1027.84
2017-12-23T01:39:06.830Z,1027.77
2017-12-23T01:40:15.442Z,1027.74
2017-12-23T01:41:24.038Z,1027.7
2017-12-23T01:42:32.899Z,1027.7
2017-12-23T01:43:41.506Z,1027.69
2017-12-23T01:44:50.108Z,1027.66
2017-12-23T01:45:58.992Z,1027.71
2017-12-23T01:47:07.584Z,1027.66
2017-12-23T01:48:16.186Z,1027.74
2017-12-23T01:49:24.796Z,1027.72
2017-12-23T01:50:33.392Z,1027.74
2017-12-23T01:51:41.989Z,1027.67
2017-12-23T01:52:50.864Z,1027.63
2017-12-23T01:53:59.464Z,1027.67
2017-12-23T01:55:08.054Z,1027.62
2017-12-23T01:56:16.925Z,1027.63
2017-12-23T01:57:25.528Z,1027.58
2017-12-23T01:58:34.119Z,1027.58
2017-12-23T01:59:42.729Z,1027.55
2017-12-23T02:00:51.340Z,1027.58
2017-12-23T02:01:59.933Z,1027.59
2017-12-23T02:03:08.538Z,1027.65
2017-12-23T02:04:17.148Z,1027.71
2017-12-23T02:05:25.739Z,1027.7
2017-12-23T02:06:34.342Z,1027.71
2017-12-23T02:07:42.956Z,1027.67
2017-12-23T02:08:51.554Z,1027.68
2017-12-23T02:10:00.150Z,1027.64
2017-12-23T02:11:08.760Z,1027.6
2017-12-23T02:12:17.357Z,1027.61
2017-12-23T02:13:25.970Z,1027.62
2017-12-23T02:14:34.818Z,1027.63
2017-12-23T02:15:43.420Z,1027.61
2017-12-23T02:16:52.029Z,1027.6
2017-12-23T02:18:00.630Z,1027.6
2017-12-23T02:19:09.226Z,1027.62
2017-12-23T02:20:17.845Z,1027.61
2017-12-23T02:21:26.446Z,1027.62
2017-12-23T02:22:35.051Z,1027.61
2017-12-23T02:23:43.925Z,1027.62
2017-12-23T02:24:52.531Z,1027.65
2017-12-23T02:26:01.125Z,1027.59
2017-12-23T02:27:09.739Z,1027.62
2017-12-23T02:28:18.332Z,1027.66
2017-12-23T02:29:26.942Z,1027.64
2017-12-23T02:30:35.548Z,1027.61
2017-12-23T02:31:44.139Z,1027.55
2017-12-23T02:32:52.751Z,1027.42
2017-12-23T02:34:01.351Z,1027.32
2017-12-23T02:35:09.949Z,1027.25
2017-12-23T02:36:18.556Z,1027.17
2017-12-23T02:37:27.166Z,1027.14
2017-12-23T02:38:35.756Z,1027.08
2017-12-23T02:39:44.360Z,1027.11
2017-12-23T02:40:52.986Z,1027.14
2017-12-23T02:42:01.857Z,1027.14
2017-12-23T02:43:10.722Z,1027.13
2017-12-23T02:44:19.315Z,1027.12
2017-12-23T02:45:27.927Z,1027.15
2017-12-23T02:46:36.534Z,1027.15
2017-12-23T02:47:45.126Z,1027.2
2017-12-23T02:48:53.733Z,1027.17
2017-12-23T02:50:02.612Z,1027.22
2017-12-23T02:51:11.207Z,1027.16
2017-12-23T02:52:19.806Z,1027.13
2017-12-23T02:53:28.423Z,1027.06
2017-12-23T02:54:37.022Z,1027.01
2017-12-23T02:55:45.881Z,1027.04
2017-12-23T02:56:54.483Z,1026.97
2017-12-23T02:58:03.089Z,1026.98
2017-12-23T02:59:11.704Z,1027.02
2017-12-23T03:00:20.293Z,1027.03
2017-12-23T03:01:28.894Z,1027.06
2017-12-23T03:02:37.507Z,1026.98
2017-12-23T03:03:46.104Z,1026.99
2017-12-23T03:04:54.698Z,1027.01
2017-12-23T03:06:03.311Z,1027
2017-12-23T03:07:12.179Z,1027.01
2017-12-23T03:08:20.768Z,1026.99
2017-12-23T03:09:29.379Z,1026.98
2017-12-23T03:10:37.986Z,1026.95
2017-12-23T03:11:46.592Z,1026.94
2017-12-23T03:12:55.188Z,1026.98
2017-12-23T03:14:03.782Z,1026.98
2017-12-23T03:15:12.399Z,1027
2017-12-23T03:16:21.000Z,1027.02
2017-12-23T03:17:29.592Z,1027.03
2017-12-23T03:18:38.205Z,1027.06
2017-12-23T03:19:46.812Z,1027.03
2017-12-23T03:20:55.400Z,1027.01
2017-12-23T03:22:04.010Z,1027.04
2017-12-23T03:23:12.618Z,1026.98
2017-12-23T03:24:21.212Z,1026.97
2017-12-23T03:25:29.819Z,1026.94
2017-12-23T03:26:38.412Z,1026.91
2017-12-23T03:27:47.027Z,1026.88
2017-12-23T03:28:55.632Z,1026.89
2017-12-23T03:30:04.229Z,1026.89
2017-12-23T03:31:12.837Z,1026.88
2017-12-23T03:32:21.444Z,1026.91
2017-12-23T03:33:30.036Z,1026.84
2017-12-23T03:34:38.641Z,1026.92
2017-12-23T03:35:47.258Z,1026.88
2017-12-23T03:36:55.852Z,1026.92
2017-12-23T03:38:04.453Z,1026.93
2017-12-23T03:39:13.063Z,1026.94
2017-12-23T03:40:21.663Z,1026.98
2017-12-23T03:41:30.539Z,1026.92
2017-12-23T03:42:39.120Z,1026.95
2017-12-23T03:43:47.725Z,1026.95
2017-12-23T03:44:56.342Z,1026.95
2017-12-23T03:46:04.933Z,1026.96
2017-12-23T03:47:13.532Z,1026.91
2017-12-23T03:48:22.147Z,1026.91
2017-12-23T03:49:30.743Z,1026.88
2017-12-23T03:50:39.338Z,1026.88
2017-12-23T03:51:47.952Z,1026.87
2017-12-23T03:52:56.555Z,1026.86
2017-12-23T03:54:05.155Z,1026.86
2017-12-23T03:55:13.764Z,1026.86
2017-12-23T03:56:22.368Z,1026.85
2017-12-23T03:57:30.964Z,1026.87
2017-12-23T03:58:39.572Z,1026.86
2017-12-23T03:59:48.181Z,1026.88
2017-12-23T04:00:56.774Z,1026.87
2017-12-23T04:02:05.381Z,1026.84
2017-12-23T04:03:13.998Z,1026.85
2017-12-23T04:04:22.588Z,1026.88
2017-12-23T04:05:31.188Z,1026.85
2017-12-23T04:06:39.799Z,1026.85
2017-12-23T04:07:48.397Z,1026.87
2017-12-23T04:08:56.996Z,1026.88
2017-12-23T04:10:05.599Z,1026.88
2017-12-23T04:11:14.207Z,1026.86
2017-12-23T04:12:22.823Z,1026.83
2017-12-23T04:13:31.414Z,1026.84
2017-12-23T04:14:40.019Z,1026.84
2017-12-23T04:15:48.630Z,1026.85
2017-12-23T04:16:57.223Z,1026.75
2017-12-23T04:18:05.817Z,1026.77
2017-12-23T04:19:14.431Z,1026.72
2017-12-23T04:20:23.034Z,1026.65
2017-12-23T04:21:31.626Z,1026.72
2017-12-23T04:22:40.240Z,1026.71
2017-12-23T04:23:48.841Z,1026.67
2017-12-23T04:24:57.453Z,1026.72
2017-12-23T04:26:06.310Z,1026.68
2017-12-23T04:27:14.906Z,1026.72
2017-12-23T04:28:23.516Z,1026.7
2017-12-23T04:29:32.119Z,1026.71
2017-12-23T04:30:40.716Z,1026.71
2017-12-23T04:31:49.330Z,1026.7
2017-12-23T04:32:57.936Z,1026.74
2017-12-23T04:34:06.526Z,1026.7
2017-12-23T04:35:15.141Z,1026.72
2017-12-23T04:36:24.006Z,1026.69
2017-12-23T04:37:32.863Z,1026.65
2017-12-23T04:38:41.465Z,1026.66
2017-12-23T04:39:50.064Z,1026.61
2017-12-23T04:40:58.680Z,1026.57
2017-12-23T04:42:07.285Z,1026.53
2017-12-23T04:43:15.880Z,1026.54
2017-12-23T04:44:24.487Z,1026.54
2017-12-23T04:45:33.097Z,1026.61
2017-12-23T04:46:41.686Z,1026.48
2017-12-23T04:47:50.295Z,1026.51
2017-12-23T04:48:58.909Z,1026.51
2017-12-23T04:50:07.502Z,1026.53
2017-12-23T04:51:16.107Z,1026.49
2017-12-23T04:52:24.716Z,1026.48
2017-12-23T04:53:33.315Z,1026.48
2017-12-23T04:54:41.922Z,1026.5
2017-12-23T04:55:50.516Z,1026.45
2017-12-23T04:56:59.123Z,1026.43
2017-12-23T04:58:07.738Z,1026.45
2017-12-23T04:59:16.332Z,1026.47
2017-12-23T05:00:24.930Z,1026.48
2017-12-23T05:01:33.543Z,1026.47
2017-12-23T05:02:42.136Z,1026.44
2017-12-23T05:03:50.734Z,1026.42
2017-12-23T05:04:59.343Z,1026.42
2017-12-23T05:06:08.203Z,1026.4
2017-12-23T05:07:16.796Z,1026.37
2017-12-23T05:08:25.404Z,1026.33
2017-12-23T05:09:34.007Z,1026.23
2017-12-23T05:10:42.617Z,1026.2
2017-12-23T05:11:51.213Z,1026.2
2017-12-23T05:12:59.807Z,1026.22
2017-12-23T05:14:08.424Z,1026.22
2017-12-23T05:15:17.028Z,1026.19
2017-12-23T05:16:25.621Z,1026.19
2017-12-23T05:17:34.235Z,1026.15
2017-12-23T05:18:42.838Z,1026.16
2017-12-23T05:19:51.431Z,1026.18
2017-12-23T05:21:00.043Z,1026.13
2017-12-23T05:22:08.654Z,1026.1
2017-12-23T05:23:17.253Z,1026.15
2017-12-23T05:24:25.856Z,1026.07
2017-12-23T05:25:34.450Z,1026.15
2017-12-23T05:26:43.065Z,1026.13
2017-12-23T05:27:51.930Z,1026.05
2017-12-23T05:29:00.520Z,1026.07
2017-12-23T05:30:09.134Z,1026.1
2017-12-23T05:31:17.741Z,1026.03
2017-12-23T05:32:26.606Z,1026.01
2017-12-23T05:33:35.209Z,1026.01
2017-12-23T05:34:43.822Z,1025.99
2017-12-23T05:35:52.421Z,1025.97
2017-12-23T05:37:01.024Z,1025.98
2017-12-23T05:38:09.885Z,1026.01
2017-12-23T05:39:18.493Z,1026.01
2017-12-23T05:40:27.099Z,1026.01
2017-12-23T05:41:35.693Z,1025.98
2017-12-23T05:42:44.300Z,1025.96
2017-12-23T05:43:52.914Z,1025.97
2017-12-23T05:45:01.509Z,1025.98
2017-12-23T05:46:10.112Z,1025.98
2017-12-23T05:47:18.728Z,1025.99
2017-12-23T05:48:27.328Z,1026.01
2017-12-23T05:49:36.183Z,1025.96
2017-12-23T05:50:44.798Z,1025.99
2017-12-23T05:51:53.400Z,1025.96
2017-12-23T05:53:01.995Z,1025.97
2017-12-23T05:54:10.609Z,1025.94
2017-12-23T05:55:19.215Z,1026.01
2017-12-23T05:56:27.815Z,1026.03
2017-12-23T05:57:36.423Z,1026.04
2017-12-23T05:58:45.088Z,1026.04
2017-12-23T05:59:53.627Z,1026.05
2017-12-23T06:01:02.511Z,1026.06
2017-12-23T06:02:11.122Z,1026.04
2017-12-23T06:03:19.716Z,1025.98
2017-12-23T06:04:28.317Z,1025.97
2017-12-23T06:05:36.934Z,1025.98
2017-12-23T06:06:45.535Z,1025.89
2017-12-23T06:07:54.141Z,1025.88
2017-12-23T06:09:02.736Z,1025.92
2017-12-23T06:10:11.345Z,1025.91
2017-12-23T06:11:19.960Z,1025.93
2017-12-23T06:12:29.064Z,1025.91
2017-12-23T06:13:37.926Z,1025.96
2017-12-23T06:14:46.542Z,1025.85
2017-12-23T06:15:55.140Z,1025.88
2017-12-23T06:17:03.736Z,1025.93
2017-12-23T06:18:12.347Z,1025.88
2017-12-23T06:19:20.948Z,1025.94
2017-12-23T06:20:29.538Z,1025.89
2017-12-23T06:21:38.151Z,1025.88
2017-12-23T06:22:46.752Z,1025.84
2017-12-23T06:23:55.362Z,1025.84
2017-12-23T06:25:03.963Z,1025.85
2017-12-23T06:26:12.558Z,1025.83
2017-12-23T06:27:21.177Z,1025.83
2017-12-23T06:28:30.037Z,1025.82
2017-12-23T06:29:38.638Z,1025.84
2017-12-23T06:30:47.250Z,1025.77
2017-12-23T06:31:55.856Z,1025.75
2017-12-23T06:33:04.448Z,1025.83
2017-12-23T06:34:13.321Z,1025.83
2017-12-23T06:35:21.933Z,1025.82
2017-12-23T06:36:30.530Z,1025.84
2017-12-23T06:37:39.133Z,1025.81
2017-12-23T06:38:47.731Z,1025.8
2017-12-23T06:39:56.344Z,1025.8
2017-12-23T06:41:04.955Z,1025.8
2017-12-23T06:42:13.545Z,1025.84
2017-12-23T06:43:22.158Z,1025.86
2017-12-23T06:44:30.768Z,1025.89
2017-12-23T06:45:39.362Z,1025.91
2017-12-23T06:46:47.967Z,1025.96
2017-12-23T06:47:56.581Z,1025.84
2017-12-23T06:49:05.431Z,1025.89
2017-12-23T06:50:14.035Z,1025.85
2017-12-23T06:51:22.894Z,1025.9
2017-12-23T06:52:31.501Z,1025.85
2017-12-23T06:53:40.110Z,1025.85
2017-12-23T06:54:48.705Z,1025.82
2017-12-23T06:55:57.573Z,1025.85
2017-12-23T06:57:06.193Z,1025.87
2017-12-23T06:58:15.043Z,1025.83
2017-12-23T06:59:23.647Z,1025.88
2017-12-23T07:00:32.258Z,1025.86
2017-12-23T07:01:40.854Z,1025.84
2017-12-23T07:02:49.449Z,1025.86
2017-12-23T07:03:58.065Z,1025.86
2017-12-23T07:05:06.669Z,1025.85
2017-12-23T07:06:15.276Z,1025.88
2017-12-23T07:07:23.868Z,1025.9
2017-12-23T07:08:32.467Z,1025.9
2017-12-23T07:09:41.079Z,1025.93
2017-12-23T07:10:49.676Z,1025.91
2017-12-23T07:11:58.271Z,1025.91
2017-12-23T07:13:06.886Z,1025.94
2017-12-23T07:14:15.490Z,1025.97
2017-12-23T07:15:24.343Z,1025.95
2017-12-23T07:16:32.957Z,1026.01
2017-12-23T07:17:41.565Z,1025.98
2017-12-23T07:18:50.154Z,1025.98
2017-12-23T07:19:58.765Z,1025.92
2017-12-23T07:21:07.361Z,1025.95
2017-12-23T07:22:15.978Z,1025.92
2017-12-23T07:23:24.580Z,1025.9
2017-12-23T07:24:33.170Z,1025.82
2017-12-23T07:25:41.787Z,1025.84
2017-12-23T07:26:50.391Z,1025.88
2017-12-23T07:27:58.984Z,1025.91
2017-12-23T07:29:07.854Z,1025.84
2017-12-23T07:30:16.459Z,1025.87
2017-12-23T07:31:25.054Z,1025.91
2017-12-23T07:32:33.660Z,1025.96
2017-12-23T07:33:42.275Z,1025.87
2017-12-23T07:34:50.874Z,1025.91
2017-12-23T07:35:59.471Z,1025.87
2017-12-23T07:37:08.066Z,1025.85
2017-12-23T07:38:16.673Z,1025.78
2017-12-23T07:39:25.284Z,1025.84
2017-12-23T07:40:33.873Z,1025.84
2017-12-23T07:41:42.483Z,1025.86
2017-12-23T07:42:51.094Z,1025.86
2017-12-23T07:43:59.690Z,1025.83
2017-12-23T07:45:08.293Z,1025.81
2017-12-23T07:46:16.910Z,1025.82
2017-12-23T07:47:25.507Z,1025.89
2017-12-23T07:48:34.102Z,1025.83
2017-12-23T07:49:42.718Z,1025.89
2017-12-23T07:50:51.319Z,1025.94
2017-12-23T07:51:59.913Z,1025.87
2017-12-23T07:53:08.527Z,1025.98
2017-12-23T07:54:17.133Z,1026.04
2017-12-23T07:55:25.723Z,1026
2017-12-23T07:56:34.335Z,1025.96
2017-12-23T07:57:42.940Z,1026
2017-12-23T07:58:51.536Z,1025.98
2017-12-23T08:00:00.147Z,1025.98
2017-12-23T08:01:09.020Z,1026.02
2017-12-23T08:02:17.615Z,1025.97
2017-12-23T08:03:26.216Z,1026.01
2017-12-23T08:04:34.818Z,1026
2017-12-23T08:05:43.425Z,1025.94
2017-12-23T08:06:52.296Z,1025.98
2017-12-23T08:08:01.159Z,1025.95
2017-12-23T08:09:09.759Z,1025.96
2017-12-23T08:10:18.372Z,1025.99
2017-12-23T08:11:26.967Z,1025.94
2017-12-23T08:12:35.569Z,1026
2017-12-23T08:13:44.182Z,1025.96
2017-12-23T08:14:52.780Z,1025.95
2017-12-23T08:16:01.375Z,1025.89
2017-12-23T08:17:09.992Z,1025.95
2017-12-23T08:18:18.593Z,1025.89
2017-12-23T08:19:27.202Z,1025.88
2017-12-23T08:20:36.058Z,1025.94
2017-12-23T08:21:44.657Z,1025.83
2017-12-23T08:22:53.271Z,1025.82
2017-12-23T08:24:01.870Z,1025.82
2017-12-23T08:25:10.466Z,1025.77
2017-12-23T08:26:19.077Z,1025.73
2017-12-23T08:27:27.680Z,1025.75
2017-12-23T08:28:36.278Z,1025.69
2017-12-23T08:29:44.891Z,1025.7
2017-12-23T08:30:53.498Z,1025.73
2017-12-23T08:32:02.089Z,1025.68
2017-12-23T08:33:10.703Z,1025.75
2017-12-23T08:34:19.304Z,1025.73
2017-12-23T08:35:27.915Z,1025.76
2017-12-23T08:36:36.516Z,1025.82
2017-12-23T08:37:45.110Z,1025.8
2017-12-23T08:38:53.723Z,1025.84
2017-12-23T08:40:02.331Z,1025.79
2017-12-23T08:41:10.926Z,1025.87
2017-12-23T08:42:19.532Z,1025.84
2017-12-23T08:43:28.141Z,1025.88
2017-12-23T08:44:36.733Z,1025.9
2017-12-23T08:45:45.337Z,1025.91
2017-12-23T08:46:53.955Z,1025.9
2017-12-23T08:48:02.550Z,1025.86
2017-12-23T08:49:11.160Z,1025.72
2017-12-23T08:50:19.750Z,1025.72
2017-12-23T08:51:28.359Z,1025.64
2017-12-23T08:52:36.969Z,1025.6
2017-12-23T08:53:45.567Z,1025.66
2017-12-23T08:54:54.440Z,1025.62
2017-12-23T08:56:03.053Z,1025.59
2017-12-23T08:57:11.647Z,1025.59
2017-12-23T08:58:20.247Z,1025.61
2017-12-23T08:59:28.862Z,1025.56
2017-12-23T09:00:37.459Z,1025.53
2017-12-23T09:01:46.061Z,1025.53
2017-12-23T09:02:54.670Z,1025.55
2017-12-23T09:04:03.529Z,1025.53
2017-12-23T09:05:12.147Z,1025.54
2017-12-23T09:06:20.743Z,1025.64
2017-12-23T09:07:29.347Z,1025.59
2017-12-23T09:08:37.960Z,1025.62
2017-12-23T09:09:46.557Z,1025.55
2017-12-23T09:10:55.157Z,1025.65
2017-12-23T09:12:04.033Z,1025.59
2017-12-23T09:13:12.636Z,1025.59
2017-12-23T09:14:21.488Z,1025.51
2017-12-23T09:15:30.366Z,1025.58
2017-12-23T09:16:38.971Z,1025.57
2017-12-23T09:17:47.578Z,1025.54
2017-12-23T09:18:56.176Z,1025.57
2017-12-23T09:20:04.772Z,1025.54
2017-12-23T09:21:13.387Z,1025.52
2017-12-23T09:22:21.989Z,1025.58
2017-12-23T09:23:30.588Z,1025.58
2017-12-23T09:24:39.203Z,1025.53
2017-12-23T09:25:47.809Z,1025.62
2017-12-23T09:26:56.406Z,1025.63
2017-12-23T09:28:05.014Z,1025.5
2017-12-23T09:29:13.626Z,1025.57
2017-12-23T09:30:22.223Z,1025.61
2017-12-23T09:31:30.831Z,1025.69
2017-12-23T09:32:39.425Z,1025.71
2017-12-23T09:33:48.041Z,1025.72
2017-12-23T09:34:56.648Z,1025.77
2017-12-23T09:36:05.244Z,1025.73
2017-12-23T09:37:13.852Z,1025.69
2017-12-23T09:38:22.464Z,1025.69
2017-12-23T09:39:31.058Z,1025.7
2017-12-23T09:40:39.665Z,1025.73
2017-12-23T09:41:48.282Z,1025.78
2017-12-23T09:42:56.871Z,1025.81
2017-12-23T09:44:05.473Z,1025.76
2017-12-23T09:45:14.090Z,1025.74
2017-12-23T09:46:22.681Z,1025.73
2017-12-23T09:47:31.276Z,1025.71
2017-12-23T09:48:39.892Z,1025.74
2017-12-23T09:49:48.496Z,1025.76
2017-12-23T09:50:57.090Z,1025.75
2017-12-23T09:52:05.706Z,1025.76
2017-12-23T09:53:14.313Z,1025.79
2017-12-23T09:54:22.905Z,1025.72
2017-12-23T09:55:31.516Z,1025.79
2017-12-23T09:56:40.131Z,1025.83
2017-12-23T09:57:48.724Z,1025.83
2017-12-23T09:58:57.329Z,1025.76
2017-12-23T10:00:05.955Z,1025.76
2017-12-23T10:01:14.541Z,1025.72
2017-12-23T10:02:23.147Z,1025.76
2017-12-23T10:03:31.739Z,1025.72
2017-12-23T10:04:40.349Z,1025.66
2017-12-23T10:05:48.958Z,1025.67
2017-12-23T10:06:57.554Z,1025.7
2017-12-23T10:08:06.162Z,1025.73
2017-12-23T10:09:15.038Z,1025.71
2017-12-23T10:10:23.630Z,1025.76
2017-12-23T10:11:32.232Z,1025.8
2017-12-23T10:12:40.848Z,1025.77
2017-12-23T10:13:49.445Z,1025.75
2017-12-23T10:14:58.043Z,1025.68
2017-12-23T10:16:06.648Z,1025.64
2017-12-23T10:17:15.253Z,1025.59
2017-12-23T10:18:23.872Z,1025.63
2017-12-23T10:19:32.464Z,1025.56
2017-12-23T10:20:41.066Z,1025.49
2017-12-23T10:21:49.679Z,1025.47
2017-12-23T10:22:58.284Z,1025.48
2017-12-23T10:24:06.875Z,1025.44
2017-12-23T10:25:15.492Z,1025.41
2017-12-23T10:26:24.099Z,1025.4
2017-12-23T10:27:32.687Z,1025.4
2017-12-23T10:28:41.300Z,1025.37
2017-12-23T10:29:49.910Z,1025.35
2017-12-23T10:30:58.520Z,1025.33
2017-12-23T10:32:07.119Z,1025.39
2017-12-23T10:33:15.716Z,1025.47
2017-12-23T10:34:24.332Z,1025.39
2017-12-23T10:35:32.937Z,1025.39
2017-12-23T10:36:41.532Z,1025.49
2017-12-23T10:37:50.144Z,1025.43
2017-12-23T10:38:58.752Z,1025.37
2017-12-23T10:40:07.343Z,1025.46
2017-12-23T10:41:15.956Z,1025.45
2017-12-23T10:42:24.568Z,1025.49
2017-12-23T10:43:33.421Z,1025.48
2017-12-23T10:44:42.284Z,1025.5
2017-12-23T10:45:50.905Z,1025.47
2017-12-23T10:46:59.494Z,1025.49
2017-12-23T10:48:08.094Z,1025.52
2017-12-23T10:49:16.708Z,1025.46
2017-12-23T10:50:25.312Z,1025.51
2017-12-23T10:51:33.912Z,1025.56
2017-12-23T10:52:42.526Z,1025.5
2017-12-23T10:53:51.129Z,1025.56
2017-12-23T10:54:59.724Z,1025.48
2017-12-23T10:56:08.341Z,1025.57
2017-12-23T10:57:16.946Z,1025.51
2017-12-23T10:58:25.543Z,1025.52
2017-12-23T10:59:34.150Z,1025.51
2017-12-23T11:00:42.748Z,1025.43
2017-12-23T11:01:51.625Z,1025.46
2017-12-23T11:03:00.223Z,1025.48
2017-12-23T11:04:08.827Z,1025.49
2017-12-23T11:05:17.442Z,1025.48
2017-12-23T11:06:26.047Z,1025.48
2017-12-23T11:07:34.641Z,1025.53
2017-12-23T11:08:43.249Z,1025.52
2017-12-23T11:09:51.858Z,1025.44
2017-12-23T11:11:00.454Z,1025.47
2017-12-23T11:12:09.058Z,1025.38
2017-12-23T11:13:17.672Z,1025.41
2017-12-23T11:14:26.275Z,1025.48
2017-12-23T11:15:35.143Z,1025.41
2017-12-23T11:16:43.735Z,1025.39
2017-12-23T11:17:52.348Z,1025.43
2017-12-23T11:19:00.960Z,1025.39
2017-12-23T11:20:09.557Z,1025.36
2017-12-23T11:21:18.421Z,1025.34
2017-12-23T11:22:27.297Z,1025.33
2017-12-23T11:23:35.890Z,1025.27
2017-12-23T11:24:44.767Z,1025.3
2017-12-23T11:25:53.372Z,1025.24
2017-12-23T11:27:01.972Z,1025.22
2017-12-23T11:28:10.832Z,1025.14
2017-12-23T11:29:19.446Z,1025.13
2017-12-23T11:30:28.044Z,1025.16
2017-12-23T11:31:36.661Z,1025.14
2017-12-23T11:32:45.254Z,1025.14
2017-12-23T11:33:53.853Z,1025.11
2017-12-23T11:35:02.466Z,1025.03
2017-12-23T11:36:11.063Z,1025.03
2017-12-23T11:37:19.660Z,1024.99
2017-12-23T11:38:28.277Z,1025.04
2017-12-23T11:39:36.877Z,1025.01
2017-12-23T11:40:45.474Z,1024.95
2017-12-23T11:41:54.089Z,1024.96
2017-12-23T11:43:02.692Z,1024.88
2017-12-23T11:44:11.288Z,1024.96
2017-12-23T11:45:19.900Z,1024.9
2017-12-23T11:46:28.769Z,1024.9
2017-12-23T11:47:37.363Z,1024.86
2017-12-23T11:48:45.967Z,1024.92
2017-12-23T11:49:54.581Z,1024.88
2017-12-23T11:51:03.180Z,1024.81
2017-12-23T11:52:12.053Z,1024.79
2017-12-23T11:53:20.671Z,1024.81
2017-12-23T11:54:29.267Z,1024.79
2017-12-23T11:55:37.866Z,1024.78
2017-12-23T11:56:46.482Z,1024.74
2017-12-23T11:57:55.084Z,1024.77
2017-12-23T11:59:03.696Z,1024.73
2017-12-23T12:00:12.290Z,1024.7
2017-12-23T12:01:20.892Z,1024.64
2017-12-23T12:02:29.505Z,1024.71
2017-12-23T12:03:38.104Z,1024.66
2017-12-23T12:04:46.703Z,1024.68
2017-12-23T12:05:55.321Z,1024.6
2017-12-23T12:07:03.920Z,1024.62
2017-12-23T12:08:12.513Z,1024.66
2017-12-23T12:09:21.125Z,1024.56
2017-12-23T12:10:29.733Z,1024.55
2017-12-23T12:11:38.326Z,1024.55
2017-12-23T12:12:46.938Z,1024.53
2017-12-23T12:13:55.534Z,1024.49
2017-12-23T12:15:04.156Z,1024.47
2017-12-23T12:16:12.758Z,1024.53
2017-12-23T12:17:21.355Z,1024.56
2017-12-23T12:18:29.969Z,1024.57
2017-12-23T12:19:38.574Z,1024.53
2017-12-23T12:20:47.172Z,1024.58
2017-12-23T12:21:55.781Z,1024.45
2017-12-23T12:23:04.397Z,1024.48
2017-12-23T12:24:12.992Z,1024.49
2017-12-23T12:25:21.604Z,1024.46
2017-12-23T12:26:30.222Z,1024.43
2017-12-23T12:27:39.076Z,1024.41
2017-12-23T12:28:47.688Z,1024.36
2017-12-23T12:29:56.280Z,1024.44
2017-12-23T12:31:04.890Z,1024.42
2017-12-23T12:32:13.497Z,1024.32
2017-12-23T12:33:22.093Z,1024.38
2017-12-23T12:34:30.708Z,1024.32
2017-12-23T12:35:39.322Z,1024.35
2017-12-23T12:36:47.913Z,1024.31
2017-12-23T12:37:56.516Z,1024.28
2017-12-23T12:39:05.129Z,1024.25
2017-12-23T12:40:13.727Z,1024.3
2017-12-23T12:41:22.325Z,1024.29
2017-12-23T12:42:30.929Z,1024.31
2017-12-23T12:43:39.535Z,1024.26
2017-12-23T12:44:48.150Z,1024.29
2017-12-23T12:45:56.742Z,1024.26
2017-12-23T12:47:05.342Z,1024.23
2017-12-23T12:48:13.960Z,1024.2
2017-12-23T12:49:22.556Z,1024.19
2017-12-23T12:50:31.154Z,1024.23
2017-12-23T12:51:39.765Z,1024.16
2017-12-23T12:52:48.371Z,1024.18
2017-12-23T12:53:57.017Z,1024.2
2017-12-23T12:55:05.577Z,1024.18
2017-12-23T12:56:14.186Z,1024.18
2017-12-23T12:57:22.792Z,1024.17
2017-12-23T12:58:31.389Z,1024.06
2017-12-23T12:59:39.986Z,1024.09
2017-12-23T13:00:48.606Z,1024.07
2017-12-23T13:01:57.211Z,1024.05
2017-12-23T13:03:05.808Z,1024.06
2017-12-23T13:04:14.943Z,1024.08
2017-12-23T13:05:23.551Z,1024
2017-12-23T13:06:32.149Z,1024.02
2017-12-23T13:07:40.762Z,1023.95
2017-12-23T13:08:49.375Z,1023.91
2017-12-23T13:09:57.969Z,1023.99
2017-12-23T13:11:06.577Z,1023.96
2017-12-23T13:12:15.177Z,1023.92
2017-12-23T13:13:23.787Z,1024
2017-12-23T13:14:32.395Z,1024.02
2017-12-23T13:15:40.987Z,1024.02
2017-12-23T13:16:49.597Z,1024.04
2017-12-23T13:17:58.250Z,1024.07
2017-12-23T13:19:06.803Z,1024.03
2017-12-23T13:22:28.104Z,1023.88
2017-12-23T13:23:36.699Z,1023.89
2017-12-23T13:24:45.306Z,1023.96
2017-12-23T13:25:53.917Z,1024.03
2017-12-23T13:27:02.519Z,1023.96
2017-12-23T13:28:11.132Z,1023.96
2017-12-23T13:29:19.723Z,1023.93
2017-12-23T13:30:28.333Z,1023.96
2017-12-23T13:31:36.952Z,1023.94
2017-12-23T13:32:45.809Z,1023.92
2017-12-23T13:33:54.414Z,1023.85
2017-12-23T13:35:03.031Z,1023.82
2017-12-23T13:36:11.631Z,1023.8
2017-12-23T13:37:20.229Z,1023.73
2017-12-23T13:38:28.841Z,1023.75
2017-12-23T13:39:37.450Z,1023.76
2017-12-23T13:40:46.045Z,1023.75
2017-12-23T13:41:54.661Z,1023.76
2017-12-23T13:43:03.270Z,1023.76
2017-12-23T13:44:12.119Z,1023.63
2017-12-23T13:45:20.729Z,1023.67
2017-12-23T13:46:29.343Z,1023.73
2017-12-23T13:47:37.939Z,1023.69
2017-12-23T13:48:46.548Z,1023.74
2017-12-23T13:49:55.164Z,1023.68
2017-12-23T13:51:04.014Z,1023.7
2017-12-23T13:52:12.613Z,1023.71
2017-12-23T13:53:21.231Z,1023.69
2017-12-23T13:54:29.832Z,1023.63
2017-12-23T13:55:38.435Z,1023.62